Time;durP1;ratioP1;P1;durP2;ratioP2;P2;SDS_P1;SDS_P2;PMS_P1;PMS_P2;Temp;Humidity;BMP_temperature;BMP_pressure;BME280_temperature;BME280_humidity;BME280_pressure;Samples;Min_cycle;Max_cycle;Signal;HPM_P1;HPM_P2
2024/04/09 00:01:17;;;;;;;3.40;1.50;;;17.20;59.40;;;;;;5496728;25;20005;-70
2024/04/09 00:03:43;;;;;;;5.60;1.30;;;17.10;60.00;;;;;;5496888;25;19990;-70
2024/04/09 00:06:14;;;;;;;1.95;1.23;;;17.00;59.70;;;;;;5502525;25;20306;-70
2024/04/09 00:08:47;;;;;;;2.47;1.25;;;16.90;59.70;;;;;;5496723;25;20259;-70
2024/04/09 00:11:20;;;;;;;3.00;1.42;;;16.80;77.70;;;;;;5511037;25;19986;-70
2024/04/09 00:13:47;;;;;;;3.97;1.48;;;16.90;77.90;;;;;;5496507;25;20002;-70
2024/04/09 00:16:13;;;;;;;2.58;1.63;;;16.90;77.80;;;;;;5526048;25;20021;-70
2024/04/09 00:18:38;;;;;;;3.47;1.45;;;16.90;77.50;;;;;;5496466;25;19994;-69
2024/04/09 00:21:04;;;;;;;1.55;1.17;;;17.00;77.60;;;;;;5496626;25;20213;-70
2024/04/09 00:23:30;;;;;;;7.03;1.55;;;17.10;77.70;;;;;;5497353;25;20001;-70
2024/04/09 00:25:56;;;;;;;2.75;1.35;;;16.90;60.20;;;;;;5496417;25;19986;-70
2024/04/09 00:28:22;;;;;;;4.55;1.20;;;16.80;77.70;;;;;;5496488;25;20842;-70
2024/04/09 00:30:58;;;;;;;3.42;1.67;;;16.80;77.40;;;;;;5496426;25;19994;-69
2024/04/09 00:33:23;;;;;;;2.45;1.33;;;16.80;79.40;;;;;;5496456;25;19995;-70
2024/04/09 00:35:51;;;;;;;1.40;1.10;;;16.70;61.60;;;;;;5496828;25;19990;-70
2024/04/09 00:38:19;;;;;;;1.67;1.35;;;16.70;61.80;;;;;;5496393;25;19986;-69
2024/04/09 00:40:45;;;;;;;2.80;1.50;;;16.60;61.60;;;;;;5497247;25;19997;-70
2024/04/09 00:43:12;;;;;;;3.33;1.63;;;16.60;61.90;;;;;;5501039;25;19994;-70
2024/04/09 00:45:39;;;;;;;2.58;1.27;;;16.60;62.20;;;;;;5521590;25;20038;-70
2024/04/09 00:48:05;;;;;;;2.80;1.23;;;16.60;62.40;;;;;;5495985;25;19997;-70
2024/04/09 00:50:32;;;;;;;3.28;1.38;;;16.60;62.50;;;;;;5519734;25;20097;-70
2024/04/09 00:53:00;;;;;;;4.50;1.60;;;16.70;83.60;;;;;;5506978;25;20210;-71
2024/04/09 00:55:26;;;;;;;2.25;1.38;;;16.60;62.60;;;;;;5499410;25;20018;-70
2024/04/09 00:57:52;;;;;;;1.33;1.17;;;16.60;63.10;;;;;;5500428;25;19990;-70
2024/04/09 01:00:19;;;;;;;3.65;1.35;;;16.50;61.90;;;;;;5503283;25;20002;-70
2024/04/09 01:02:49;;;;;;;3.00;1.23;;;16.80;81.20;;;;;;5499425;25;19990;-70
2024/04/09 01:05:15;;;;;;;6.10;1.40;;;16.60;62.20;;;;;;5499420;25;20107;-70
2024/04/09 01:07:41;;;;;;;3.63;1.40;;;16.60;81.00;;;;;;5503359;25;19990;-70
2024/04/09 01:10:07;;;;;;;3.28;1.67;;;16.60;81.00;;;;;;5513564;25;20000;-70
2024/04/09 01:12:33;;;;;;;3.13;1.30;;;16.70;61.90;;;;;;5499391;25;20192;-70
2024/04/09 01:14:59;;;;;;;7.35;1.38;;;16.60;62.00;;;;;;5499599;25;20002;-70
2024/04/09 01:17:25;;;;;;;3.00;1.40;;;16.60;81.20;;;;;;5498138;25;20083;-70
2024/04/09 01:19:51;;;;;;;3.17;2.05;;;16.60;62.30;;;;;;5499405;25;20196;-68
2024/04/09 01:22:17;;;;;;;2.17;1.60;;;16.50;80.90;;;;;;5499052;25;19997;-69
2024/04/09 01:24:44;;;;;;;2.55;1.52;;;16.50;62.00;;;;;;5499128;25;20006;-70
2024/04/09 01:27:14;;;;;;;3.10;1.45;;;16.40;81.10;;;;;;5498762;25;20486;-70
2024/04/09 01:29:43;;;;;;;4.68;1.45;;;16.40;62.80;;;;;;5500299;25;19990;-70
2024/04/09 01:32:09;;;;;;;;;;;16.30;63.60;;;;;;5499661;25;19990;-70
2024/04/09 01:34:35;;;;;;;2.90;1.55;;;16.20;64.30;;;;;;5499113;25;19920;-70
2024/04/09 01:37:04;;;;;;;6.88;1.40;;;16.00;64.10;;;;;;5499161;25;19994;-70
2024/04/09 01:39:30;;;;;;;3.25;1.10;;;16.00;70.30;;;;;;5475634;25;20018;-69
2024/04/09 01:41:56;;;;;;;4.75;1.48;;;15.20;67.10;;;;;;5507033;25;20043;-69
2024/04/09 01:44:22;;;;;;;10.52;1.52;;;15.80;66.20;;;;;;5498710;25;20006;-69
2024/04/09 01:46:48;;;;;;;5.38;1.58;;;15.70;66.30;;;;;;5499802;25;20010;-69
2024/04/09 01:49:18;;;;;;;3.95;1.48;;;15.50;84.80;;;;;;5498927;25;20080;-69
2024/04/09 01:51:44;;;;;;;1.63;1.15;;;15.40;85.30;;;;;;5498872;25;20005;-69
2024/04/09 01:54:10;;;;;;;1.98;1.33;;;15.70;85.10;;;;;;5498575;25;19994;-69
2024/04/09 01:56:36;;;;;;;1.83;1.20;;;15.40;85.30;;;;;;5498715;25;20038;-69
2024/04/09 01:59:01;;;;;;;2.67;1.15;;;15.50;86.90;;;;;;5498862;25;19990;-69
2024/04/09 02:01:27;;;;;;;6.93;2.20;;;15.40;68.20;;;;;;5497343;25;20002;-69
2024/04/09 02:03:56;;;;;;;4.07;1.30;;;15.40;68.70;;;;;;5499680;25;20000;-68
2024/04/09 02:06:23;;;;;;;4.40;1.75;;;15.40;68.80;;;;;;5534917;25;20020;-69
2024/04/09 02:08:50;;;;;;;5.03;1.67;;;15.30;91.10;;;;;;5512844;25;20018;-69
2024/04/09 02:11:16;;;;;;;1.73;1.20;;;15.30;69.20;;;;;;5513080;25;20046;-68
2024/04/09 02:13:47;;;;;;;2.78;1.48;;;15.20;69.10;;;;;;5498576;25;19994;-69
2024/04/09 02:16:13;;;;;;;4.45;1.80;;;15.20;69.70;;;;;;5498647;25;19986;-69
2024/04/09 02:18:42;;;;;;;2.80;2.13;;;15.10;70.00;;;;;;5502626;25;19990;-68
2024/04/09 02:21:09;;;;;;;9.55;1.80;;;15.10;70.50;;;;;;5500782;25;20042;-68
2024/04/09 02:23:35;;;;;;;2.50;1.45;;;15.00;70.70;;;;;;5493627;26;19994;-68
2024/04/09 02:26:01;;;;;;;3.72;2.17;;;15.00;70.50;;;;;;5491992;25;19994;-69
2024/04/09 02:28:27;;;;;;;4.45;1.67;;;14.90;70.20;;;;;;5498388;25;19997;-68
2024/04/09 02:30:52;;;;;;;4.38;1.52;;;14.90;70.30;;;;;;5498333;25;19990;-69
2024/04/09 02:33:18;;;;;;;3.15;1.88;;;14.90;70.80;;;;;;5501954;25;19998;-68
2024/04/09 02:36:06;;;;;;;4.25;1.88;;;14.90;71.10;;;;;;5498203;25;20198;-68
2024/04/09 02:38:35;;;;;;;3.85;2.10;;;14.60;74.50;;;;;;5499089;25;20010;-68
2024/04/09 02:41:14;;;;;;;3.35;1.48;;;14.70;91.00;;;;;;5497338;26;19990;-68
2024/04/09 02:43:40;;;;;;;2.03;1.55;;;14.70;72.20;;;;;;5498357;25;19994;-69
2024/04/09 02:46:06;;;;;;;4.25;2.72;;;14.60;72.40;;;;;;5498654;25;19996;-72
2024/04/09 02:48:35;;;;;;;4.15;1.40;;;14.60;72.50;;;;;;5498773;25;20001;-69
2024/04/09 02:51:03;;;;;;;2.22;1.63;;;14.50;72.60;;;;;;5498312;25;19998;-70
2024/04/09 02:53:29;;;;;;;4.18;1.55;;;14.50;91.60;;;;;;5512806;25;20100;-71
2024/04/09 02:56:02;;;;;;;1.48;1.30;;;14.50;73.80;;;;;;5498889;25;19998;-68
2024/04/09 02:58:29;;;;;;;3.33;1.33;;;14.60;91.40;;;;;;5499034;25;19990;-69
2024/04/09 03:00:55;;;;;;;2.45;1.65;;;14.80;73.80;;;;;;5501880;25;20006;-70
2024/04/09 03:03:21;;;;;;;2.65;1.50;;;;;;;;;;5501675;25;20018;-70
2024/04/09 03:05:47;;;;;;;3.08;1.52;;;;;;;;;;5497803;25;19994;-69
2024/04/09 03:08:13;;;;;;;2.53;1.45;;;14.70;91.20;;;;;;5497471;25;19994;-70
2024/04/09 03:10:39;;;;;;;3.08;1.42;;;14.50;91.60;;;;;;5512367;25;20000;-70
2024/04/09 03:13:04;;;;;;;2.92;1.60;;;14.40;91.80;;;;;;5502714;25;19997;-69
2024/04/09 03:15:31;;;;;;;2.85;1.73;;;14.50;92.00;;;;;;5497711;25;19995;-69
2024/04/09 03:17:57;;;;;;;4.70;1.52;;;14.70;92.00;;;;;;5497840;25;19990;-69
2024/04/09 03:20:23;;;;;;;3.85;1.70;;;14.40;91.60;;;;;;5497601;25;20009;-69
2024/04/09 03:22:48;;;;;;;5.35;1.80;;;14.50;91.60;;;;;;5497340;25;20047;-70
2024/04/09 03:25:15;;;;;;;6.15;1.73;;;14.50;91.10;;;;;;5497550;25;19994;-70
2024/04/09 03:27:41;;;;;;;3.22;1.85;;;14.50;90.70;;;;;;5498453;25;20384;-68
2024/04/09 03:30:09;;;;;;;2.45;1.60;;;14.50;90.60;;;;;;5498202;25;20036;-69
2024/04/09 03:32:35;;;;;;;2.78;1.73;;;14.50;72.50;;;;;;5497338;25;19992;-68
2024/04/09 03:35:00;;;;;;;2.65;1.55;;;14.50;90.90;;;;;;5497401;25;20001;-70
2024/04/09 03:37:26;;;;;;;1.92;1.45;;;14.40;91.10;;;;;;5497149;25;19994;-70
2024/04/09 03:39:52;;;;;;;2.70;1.60;;;14.50;91.20;;;;;;5497422;25;20004;-69
2024/04/09 03:42:18;;;;;;;3.78;1.70;;;14.60;90.90;;;;;;5497194;25;20210;-69
2024/04/09 03:44:45;;;;;;;5.70;1.60;;;14.50;90.70;;;;;;5496264;25;19994;-71
2024/04/09 03:47:10;;;;;;;3.35;2.25;;;14.40;90.60;;;;;;5497798;25;20014;-70
2024/04/09 03:49:38;;;;;;;3.85;1.70;;;14.40;72.30;;;;;;5496440;25;19994;-70
2024/04/09 03:52:05;;;;;;;3.70;1.55;;;14.50;90.70;;;;;;5495938;25;20195;-69
2024/04/09 03:54:32;;;;;;;7.15;1.83;;;14.40;72.00;;;;;;5497174;25;20167;-69
2024/04/09 03:57:03;;;;;;;5.60;2.10;;;14.50;90.50;;;;;;5497216;25;19986;-68
2024/04/09 03:59:33;;;;;;;2.97;1.60;;;14.40;90.50;;;;;;5517940;26;20090;-68
2024/04/09 04:01:59;;;;;;;6.50;1.63;;;14.50;90.40;;;;;;5504364;25;20059;-68
2024/04/09 04:04:25;;;;;;;3.00;1.58;;;14.50;90.60;;;;;;5503164;25;20140;-68
2024/04/09 04:06:50;;;;;;;5.97;2.33;;;14.40;90.60;;;;;;5496870;25;19990;-71
2024/04/09 04:09:16;;;;;;;2.97;1.83;;;14.60;90.60;;;;;;5497382;25;20001;-67
2024/04/09 04:11:42;;;;;;;3.92;1.77;;;14.30;90.70;;;;;;5496808;25;19997;-69
2024/04/09 04:14:07;;;;;;;7.57;1.92;;;14.60;90.80;;;;;;5495722;25;19997;-67
2024/04/09 04:16:33;;;;;;;5.35;1.95;;;14.60;78.60;;;;;;5507588;26;19997;-67
2024/04/09 04:18:59;;;;;;;2.85;1.65;;;14.40;73.20;;;;;;5496806;25;20102;-67
2024/04/09 04:21:25;;;;;;;2.25;1.73;;;14.40;72.60;;;;;;5497119;25;19998;-67
2024/04/09 04:23:52;;;;;;;3.45;1.92;;;14.60;90.30;;;;;;5495828;25;19996;-67
2024/04/09 04:26:22;;;;;;;4.53;1.90;;;14.30;90.20;;;;;;5495220;25;20002;-67
2024/04/09 04:28:49;;;;;;;3.47;1.80;;;14.30;90.10;;;;;;5496480;25;19990;-67
2024/04/09 04:31:17;;;;;;;6.85;2.38;;;14.50;71.20;;;;;;5496391;25;20047;-68
2024/04/09 04:33:44;;;;;;;8.45;2.33;;;14.70;90.10;;;;;;5496133;25;19990;-68
2024/04/09 04:36:13;;;;;;;2.67;1.70;;;14.40;89.70;;;;;;5496365;25;19994;-68
2024/04/09 04:38:43;;;;;;;2.33;1.67;;;14.50;89.20;;;;;;5497134;25;20018;-70
2024/04/09 04:41:08;;;;;;;7.45;1.98;;;14.50;88.80;;;;;;5496040;25;19994;-70
2024/04/09 04:43:36;;;;;;;5.60;2.20;;;14.60;88.50;;;;;;5496122;25;20086;-70
2024/04/09 04:46:04;;;;;;;3.63;2.00;;;14.60;88.30;;;;;;5496489;25;20001;-70
2024/04/09 04:48:30;;;;;;;5.35;1.80;;;14.60;87.80;;;;;;5502522;26;20098;-67
2024/04/09 04:50:56;;;;;;;9.93;2.17;;;14.80;87.80;;;;;;5504248;25;19990;-67
2024/04/09 04:53:22;;;;;;;3.90;1.70;;;14.70;87.90;;;;;;5495852;25;20034;-67
2024/04/09 04:55:52;;;;;;;4.57;1.67;;;14.70;87.40;;;;;;5496990;25;20218;-68
2024/04/09 04:58:21;;;;;;;2.95;1.65;;;14.80;87.50;;;;;;5495744;25;20004;-69
2024/04/09 05:00:47;;;;;;;3.58;1.83;;;14.80;87.60;;;;;;5495779;25;20002;-66
2024/04/09 05:03:14;;;;;;;3.17;1.88;;;14.80;87.70;;;;;;5495797;25;20002;-66
2024/04/09 05:05:40;;;;;;;4.38;2.33;;;14.90;87.40;;;;;;5498901;25;19990;-67
2024/04/09 05:08:06;;;;;;;3.20;1.90;;;14.90;87.00;;;;;;5500896;25;20001;-67
2024/04/09 05:10:32;;;;;;;2.20;1.85;;;14.90;86.70;;;;;;5508499;25;19998;-67
2024/04/09 05:12:57;;;;;;;2.60;1.75;;;14.90;68.10;;;;;;5496211;25;19998;-67
2024/04/09 05:15:23;;;;;;;3.38;1.70;;;15.00;67.50;;;;;;5495320;25;20020;-67
2024/04/09 05:17:50;;;;;;;5.90;2.25;;;15.00;68.00;;;;;;5495570;25;19990;-67
2024/04/09 05:20:17;;;;;;;3.45;2.10;;;15.20;86.00;;;;;;5495508;25;20001;-67
2024/04/09 05:22:50;;;;;;;8.00;2.20;;;15.10;67.30;;;;;;5495388;25;20046;-67
2024/04/09 05:25:16;;;;;;;3.95;2.20;;;14.80;85.30;;;;;;5495354;25;19994;-66
2024/04/09 05:27:43;;;;;;;3.90;2.33;;;15.10;85.50;;;;;;5496135;25;20271;-67
2024/04/09 05:30:10;;;;;;;4.05;2.03;;;15.10;85.60;;;;;;5495227;25;19998;-68
2024/04/09 05:32:42;;;;;;;4.18;2.53;;;15.10;85.50;;;;;;5494920;25;21006;-69
2024/04/09 05:35:09;;;;;;;5.00;2.63;;;15.10;85.80;;;;;;5495151;25;20005;-67
2024/04/09 05:37:35;;;;;;;5.50;2.53;;;15.20;85.10;;;;;;5497663;25;19990;-67
2024/04/09 05:40:00;;;;;;;6.45;2.75;;;15.20;84.90;;;;;;5498148;26;20001;-68
2024/04/09 05:42:26;;;;;;;6.78;2.50;;;15.20;66.90;;;;;;5499049;25;20068;-67
2024/04/09 05:44:52;;;;;;;4.78;2.15;;;15.30;89.30;;;;;;5499818;25;20555;-68
2024/04/09 05:47:18;;;;;;;8.80;2.80;;;15.30;67.20;;;;;;5498980;25;20004;-67
2024/04/09 05:49:45;;;;;;;3.80;2.50;;;15.30;85.90;;;;;;5498940;25;19986;-67
2024/04/09 05:52:11;;;;;;;6.60;2.40;;;15.40;66.70;;;;;;5498828;25;20019;-67
2024/04/09 05:54:41;;;;;;;6.45;2.30;;;15.50;66.80;;;;;;5497804;25;19990;-67
2024/04/09 05:57:07;;;;;;;4.32;2.30;;;15.40;66.70;;;;;;5504998;25;19993;-67
2024/04/09 05:59:34;;;;;;;6.00;2.10;;;15.40;66.70;;;;;;5498794;25;19992;-68
2024/04/09 06:02:00;;;;;;;4.25;2.10;;;15.40;84.80;;;;;;5499567;25;19990;-68
2024/04/09 06:04:25;;;;;;;11.98;2.35;;;15.50;77.60;;;;;;5498613;25;20005;-68
2024/04/09 06:06:51;;;;;;;4.07;2.22;;;15.40;84.40;;;;;;5498397;25;19997;-67
2024/04/09 06:09:17;;;;;;;7.22;2.28;;;;;;;;;;5496274;25;20023;-68
2024/04/09 06:11:43;;;;;;;2.75;2.20;;;;;;;;;;5496315;25;20019;-68
2024/04/09 06:14:09;;;;;;;7.32;2.33;;;;;;;;;;5465033;25;20006;-68
2024/04/09 06:16:35;;;;;;;4.63;2.47;;;15.50;66.10;;;;;;5495756;25;19994;-68
2024/04/09 06:19:01;;;;;;;3.33;2.22;;;15.60;84.30;;;;;;5497303;25;20005;-68
2024/04/09 06:21:26;;;;;;;5.88;2.83;;;15.60;84.80;;;;;;5495726;25;19986;-68
2024/04/09 06:23:52;;;;;;;6.63;2.28;;;15.60;85.80;;;;;;5497854;25;20177;-68
2024/04/09 06:26:20;;;;;;;6.35;2.47;;;15.60;66.80;;;;;;5498304;25;19986;-69
2024/04/09 06:28:50;;;;;;;4.13;2.53;;;15.70;66.60;;;;;;5498563;25;19990;-68
2024/04/09 06:31:16;;;;;;;6.47;2.33;;;15.70;66.40;;;;;;5502287;25;19985;-68
2024/04/09 06:33:41;;;;;;;6.13;2.75;;;15.80;66.30;;;;;;5497739;25;20003;-67
2024/04/09 06:36:08;;;;;;;4.93;2.35;;;15.00;65.00;;;;;;5504985;25;20004;-67
2024/04/09 06:38:33;;;;;;;8.75;3.78;;;16.00;66.10;;;;;;5498610;25;19982;-67
2024/04/09 06:40:59;;;;;;;4.05;2.50;;;16.10;69.50;;;;;;5498485;25;19986;-67
2024/04/09 06:43:25;;;;;;;3.95;2.30;;;16.70;65.40;;;;;;5503210;25;19990;-68
2024/04/09 06:45:51;;;;;;;3.40;2.13;;;16.20;65.60;;;;;;5502897;25;19990;-68
2024/04/09 06:48:16;;;;;;;3.45;2.40;;;16.30;65.30;;;;;;5498388;25;19986;-68
2024/04/09 06:50:42;;;;;;;4.93;2.22;;;16.40;65.10;;;;;;5498189;25;19986;-67
2024/04/09 06:53:08;;;;;;;4.03;1.95;;;16.40;64.90;;;;;;5497215;25;20120;-67
2024/04/09 06:55:34;;;;;;;4.97;1.98;;;17.00;65.10;;;;;;5497952;25;20471;-67
2024/04/09 06:57:59;;;;;;;5.38;2.40;;;16.70;85.00;;;;;;5497398;25;20211;-67
2024/04/09 07:00:25;;;;;;;2.35;1.75;;;16.70;64.70;;;;;;5497644;25;20097;-67
2024/04/09 07:02:52;;;;;;;4.13;2.33;;;16.80;64.60;;;;;;5497818;25;20250;-68
2024/04/09 07:05:18;;;;;;;4.47;2.17;;;17.10;86.30;;;;;;5497572;25;19993;-68
2024/04/09 07:07:46;;;;;;;5.55;1.83;;;17.00;63.90;;;;;;5508127;25;20001;-68
2024/04/09 07:10:13;;;;;;;3.70;2.45;;;16.10;62.60;;;;;;5502868;25;19990;-68
2024/04/09 07:12:39;;;;;;;7.90;2.05;;;17.30;64.00;;;;;;5497630;25;19990;-68
2024/04/09 07:15:05;;;;;;;5.82;1.98;;;;;;;;;;5496926;25;20129;-67
2024/04/09 07:17:30;;;;;;;6.78;2.03;;;18.00;65.70;;;;;;5495340;25;19990;-68
2024/04/09 07:19:58;;;;;;;7.63;2.22;;;17.90;61.10;;;;;;5499769;25;20047;-68
2024/04/09 07:22:24;;;;;;;8.50;2.15;;;18.10;60.50;;;;;;5495504;25;20002;-68
2024/04/09 07:24:51;;;;;;;6.43;2.08;;;18.50;76.80;;;;;;5522644;26;19986;-67
2024/04/09 07:27:16;;;;;;;4.82;1.92;;;18.30;75.50;;;;;;5500487;25;20059;-68
2024/04/09 07:29:43;;;;;;;11.85;3.25;;;18.60;59.40;;;;;;5496574;25;20099;-67
2024/04/09 07:32:11;;;;;;;7.38;2.25;;;18.70;74.00;;;;;;5497132;25;20005;-68
2024/04/09 07:34:37;;;;;;;6.00;2.60;;;19.00;72.80;;;;;;5497220;25;19994;-68
2024/04/09 07:37:03;;;;;;;4.45;2.28;;;19.30;72.60;;;;;;5526603;25;19997;-68
2024/04/09 07:39:29;;;;;;;5.60;2.40;;;19.20;70.60;;;;;;5497370;25;20022;-68
2024/04/09 07:41:55;;;;;;;7.47;3.15;;;19.50;70.20;;;;;;5524341;26;19990;-68
2024/04/09 07:44:20;;;;;;;3.92;2.13;;;19.40;69.80;;;;;;5499663;25;19990;-67
2024/04/09 07:46:49;;;;;;;14.38;2.65;;;19.80;70.70;;;;;;5497000;25;19998;-67
2024/04/09 07:49:16;;;;;;;3.92;2.22;;;;;;;;;;5496923;25;20074;-67
2024/04/09 07:51:42;;;;;;;6.57;2.40;;;19.80;56.50;;;;;;5497119;25;19994;-67
2024/04/09 07:54:09;;;;;;;7.63;2.42;;;19.80;60.90;;;;;;5496763;25;19994;-68
2024/04/09 07:56:34;;;;;;;3.92;2.80;;;20.10;68.90;;;;;;5496958;25;20010;-68
2024/04/09 07:59:01;;;;;;;6.45;2.22;;;20.20;69.10;;;;;;5495799;25;19998;-67
2024/04/09 08:01:27;;;;;;;4.15;2.00;;;20.30;71.60;;;;;;5497349;25;20001;-68
2024/04/09 08:03:53;;;;;;;3.38;2.00;;;20.30;56.10;;;;;;5496911;25;19997;-67
2024/04/09 08:06:28;;;;;;;12.07;2.30;;;20.60;66.80;;;;;;5510991;25;19986;-67
2024/04/09 08:08:54;;;;;;;8.02;1.95;;;20.40;66.20;;;;;;5505042;25;20005;-67
2024/04/09 08:11:20;;;;;;;4.97;2.00;;;20.70;54.40;;;;;;5496749;25;19990;-68
2024/04/09 08:13:45;;;;;;;6.32;2.10;;;21.10;54.40;;;;;;5496620;25;20005;-68
2024/04/09 08:16:12;;;;;;;8.38;2.40;;;21.10;54.70;;;;;;5496585;25;20262;-68
2024/04/09 08:18:37;;;;;;;5.55;2.45;;;21.30;54.60;;;;;;5497483;25;19998;-68
2024/04/09 08:21:03;;;;;;;9.15;2.20;;;21.40;54.20;;;;;;5495594;26;20050;-68
2024/04/09 08:23:30;;;;;;;4.85;2.80;;;21.40;53.70;;;;;;5481539;25;20000;-68
2024/04/09 08:25:57;;;;;;;4.60;1.90;;;21.60;69.70;;;;;;5496614;25;20389;-68
2024/04/09 08:28:22;;;;;;;3.45;2.13;;;21.50;53.60;;;;;;5496302;25;19990;-68
2024/04/09 08:30:50;;;;;;;7.13;2.72;;;21.80;53.20;;;;;;5496422;25;20026;-68
2024/04/09 08:33:17;;;;;;;3.78;2.08;;;21.90;53.30;;;;;;5495952;25;19994;-68
2024/04/09 08:35:47;;;;;;;6.53;2.20;;;22.00;53.10;;;;;;5497044;25;20099;-68
2024/04/09 08:38:13;;;;;;;5.13;2.08;;;22.00;53.00;;;;;;5496251;25;19986;-68
2024/04/09 08:40:45;;;;;;;4.07;1.98;;;22.20;74.80;;;;;;5496049;25;20148;-68
2024/04/09 08:43:13;;;;;;;4.50;2.42;;;22.20;53.20;;;;;;5496068;25;19994;-68
2024/04/09 08:45:41;;;;;;;;;;;22.30;53.10;;;;;;5496564;25;19990;-68
2024/04/09 08:48:09;;;;;;;9.88;2.80;;;22.30;52.10;;;;;;5496004;25;19919;-68
2024/04/09 08:50:35;;;;;;;10.48;2.30;;;22.30;52.90;;;;;;5495991;25;19993;-68
2024/04/09 08:53:01;;;;;;;4.68;1.90;;;;;;;;;;5496872;25;19986;-67
2024/04/09 08:55:27;;;;;;;7.93;2.35;;;22.90;51.60;;;;;;5495206;25;19989;-68
2024/04/09 08:57:53;;;;;;;3.45;1.70;;;22.60;51.50;;;;;;5496049;25;19989;-68
2024/04/09 09:00:18;;;;;;;6.78;2.00;;;22.80;51.30;;;;;;5497148;25;19990;-69
2024/04/09 09:02:44;;;;;;;3.83;2.15;;;23.10;61.90;;;;;;5495601;25;19982;-68
2024/04/09 09:05:17;;;;;;;4.20;1.95;;;23.10;62.80;;;;;;5498646;25;19993;-68
2024/04/09 09:07:43;;;;;;;4.20;1.73;;;23.20;51.20;;;;;;5515324;26;19990;-69
2024/04/09 09:10:10;;;;;;;3.50;2.03;;;23.40;51.00;;;;;;5505619;25;19993;-69
2024/04/09 09:12:36;;;;;;;4.70;2.03;;;23.40;49.70;;;;;;5507019;25;20008;-69
2024/04/09 09:15:03;;;;;;;4.57;2.05;;;23.40;61.20;;;;;;5510951;26;20112;-68
2024/04/09 09:17:31;;;;;;;5.47;2.22;;;23.30;60.90;;;;;;5508945;25;19993;-69
2024/04/09 09:20:09;;;;;;;6.53;2.25;;;23.30;48.60;;;;;;5498286;25;20006;-69
2024/04/09 09:22:43;;;;;;;3.90;1.88;;;23.10;60.60;;;;;;5499385;25;20051;-68
2024/04/09 09:25:18;;;;;;;5.13;2.10;;;23.20;60.70;;;;;;5498750;25;19997;-69
2024/04/09 09:27:48;;;;;;;6.88;2.20;;;23.50;59.90;;;;;;5501919;25;20010;-69
2024/04/09 09:30:14;;;;;;;8.55;1.58;;;23.40;49.40;;;;;;5498757;25;20053;-69
2024/04/09 09:32:46;;;;;;;2.92;1.85;;;23.70;61.00;;;;;;5522382;26;20035;-69
2024/04/09 09:35:17;;;;;;;5.57;2.25;;;23.70;49.50;;;;;;5503879;25;20005;-69
2024/04/09 09:37:45;;;;;;;6.22;1.92;;;23.80;49.10;;;;;;5498969;25;20001;-69
2024/04/09 09:40:12;;;;;;;2.33;1.65;;;24.00;49.00;;;;;;5498675;25;20050;-69
2024/04/09 09:42:38;;;;;;;3.88;1.63;;;24.10;48.50;;;;;;5499668;25;20433;-69
2024/04/09 09:45:06;;;;;;;8.02;1.98;;;24.10;48.40;;;;;;5498558;25;20050;-69
2024/04/09 09:47:40;;;;;;;7.30;1.80;;;24.10;48.50;;;;;;5502984;25;19993;-68
2024/04/09 09:50:11;;;;;;;5.65;1.90;;;24.20;66.40;;;;;;5502385;25;19994;-68
2024/04/09 09:52:41;;;;;;;5.28;1.73;;;24.30;48.10;;;;;;5502899;25;19993;-68
2024/04/09 09:55:08;;;;;;;3.67;1.50;;;24.50;48.10;;;;;;5498556;25;20206;-68
2024/04/09 09:57:37;;;;;;;7.93;2.07;;;24.70;47.70;;;;;;5497672;26;19993;-68
2024/04/09 10:00:12;;;;;;;;;;;24.80;47.20;;;;;;5504603;25;19997;-68
2024/04/09 10:02:41;;;;;;;4.75;1.60;;;25.20;57.40;;;;;;5507177;25;19923;-68
2024/04/09 10:05:07;;;;;;;4.43;1.58;;;25.20;56.80;;;;;;5497499;25;19986;-68
2024/04/09 10:07:34;;;;;;;2.25;1.13;;;25.50;55.90;;;;;;5523310;25;19994;-68
2024/04/09 10:09:59;;;;;;;5.75;1.55;;;25.50;55.60;;;;;;5500209;25;19997;-68
2024/04/09 10:12:32;;;;;;;2.97;1.83;;;25.50;55.10;;;;;;5497797;25;19994;-68
2024/04/09 10:15:24;;;;;;;6.88;1.58;;;25.40;55.30;;;;;;5497639;25;19998;-68
2024/04/09 10:18:04;;;;;;;1.85;1.38;;;25.30;55.50;;;;;;5500825;25;19997;-69
2024/04/09 10:20:31;;;;;;;3.30;1.15;;;25.20;55.40;;;;;;5496958;25;20002;-68
2024/04/09 10:23:01;;;;;;;5.95;1.50;;;25.70;55.60;;;;;;5497284;25;19990;-68
2024/04/09 10:25:41;;;;;;;6.15;1.38;;;25.70;45.30;;;;;;5498083;25;20005;-68
2024/04/09 10:28:08;;;;;;;6.82;1.52;;;26.10;54.40;;;;;;5497776;25;20005;-68
2024/04/09 10:30:37;;;;;;;3.83;1.52;;;26.10;54.00;;;;;;5498087;25;20389;-68
2024/04/09 10:33:05;;;;;;;4.30;2.15;;;26.00;44.00;;;;;;5496066;25;19990;-68
2024/04/09 10:35:33;;;;;;;7.35;1.85;;;28.70;55.90;;;;;;5524691;26;20045;-68
2024/04/09 10:38:04;;;;;;;4.45;1.30;;;26.30;53.80;;;;;;5503909;25;20206;-68
2024/04/09 10:40:32;;;;;;;4.00;1.42;;;26.30;43.70;;;;;;5482404;25;19990;-68
2024/04/09 10:43:01;;;;;;;6.03;1.25;;;26.40;53.50;;;;;;5497087;25;20210;-68
2024/04/09 10:45:27;;;;;;;4.72;1.40;;;26.90;54.00;;;;;;5496763;25;19994;-68
2024/04/09 10:47:52;;;;;;;2.10;1.30;;;27.80;44.50;;;;;;5497644;25;20054;-68
2024/04/09 10:50:18;;;;;;;4.22;1.60;;;27.10;52.60;;;;;;5497771;25;19994;-68
2024/04/09 10:52:46;;;;;;;4.55;1.42;;;27.10;52.40;;;;;;5498712;25;19990;-68
2024/04/09 10:55:13;;;;;;;;;;;27.10;42.70;;;;;;5498134;25;20005;-68
2024/04/09 10:57:39;;;;;;;6.30;1.35;;;27.20;52.10;;;;;;5497994;25;19932;-68
2024/04/09 11:00:12;;;;;;;5.47;1.60;;;27.60;52.00;;;;;;5497613;25;19986;-68
2024/04/09 11:02:40;;;;;;;9.63;1.67;;;27.20;51.50;;;;;;5497720;25;20155;-68
2024/04/09 11:05:07;;;;;;;7.03;2.15;;;27.30;41.60;;;;;;5497580;25;20045;-68
2024/04/09 11:07:37;;;;;;;2.85;1.63;;;27.40;41.70;;;;;;5533771;25;20005;-68
2024/04/09 11:10:13;;;;;;;6.93;1.30;;;27.20;51.00;;;;;;5497756;25;20202;-68
2024/04/09 11:12:48;;;;;;;5.15;1.50;;;27.30;41.50;;;;;;5485048;25;20405;-68
2024/04/09 11:15:15;;;;;;;11.02;1.42;;;27.40;40.70;;;;;;5497439;25;19994;-68
2024/04/09 11:17:41;;;;;;;2.45;1.20;;;27.40;41.60;;;;;;5497266;25;19997;-68
2024/04/09 11:20:14;;;;;;;8.25;1.98;;;27.30;50.60;;;;;;5496753;25;20103;-68
2024/04/09 11:22:43;;;;;;;5.85;1.35;;;27.40;50.70;;;;;;5497253;25;20009;-68
2024/04/09 11:25:13;;;;;;;2.05;1.20;;;27.30;50.90;;;;;;5499035;25;19990;-68
2024/04/09 11:27:42;;;;;;;4.40;1.35;;;27.70;51.10;;;;;;5501571;25;20025;-68
2024/04/09 11:30:09;;;;;;;2.38;1.60;;;28.00;51.00;;;;;;5500447;25;19986;-68
2024/04/09 11:32:39;;;;;;;5.70;2.45;;;27.90;50.80;;;;;;5519315;26;19993;-68
2024/04/09 11:35:18;;;;;;;12.27;1.83;;;27.90;50.30;;;;;;5503117;25;20001;-68
2024/04/09 11:37:52;;;;;;;6.97;1.20;;;28.30;49.20;;;;;;5496430;25;19994;-68
2024/04/09 11:40:25;;;;;;;3.88;1.50;;;27.80;48.70;;;;;;5496374;25;20247;-68
2024/04/09 11:42:52;;;;;;;5.38;2.03;;;27.90;48.80;;;;;;5498242;25;19996;-68
2024/04/09 11:45:29;;;;;;;3.38;1.63;;;28.20;49.50;;;;;;5497262;25;19994;-68
2024/04/09 11:47:55;;;;;;;4.93;1.20;;;28.10;49.30;;;;;;5497303;25;19986;-68
2024/04/09 11:50:22;;;;;;;4.07;1.33;;;28.20;49.20;;;;;;5497025;25;19998;-68
2024/04/09 11:52:48;;;;;;;2.45;1.10;;;28.10;48.50;;;;;;5496955;25;20004;-68
2024/04/09 11:55:14;;;;;;;4.18;1.20;;;28.00;39.40;;;;;;5500818;25;20225;-68
2024/04/09 11:57:45;;;;;;;2.95;1.20;;;27.90;39.40;;;;;;5512382;25;19986;-69
2024/04/09 12:00:12;;;;;;;3.95;1.05;;;27.90;47.90;;;;;;5497668;25;19982;-68
2024/04/09 12:02:43;;;;;;;3.42;1.30;;;28.00;48.00;;;;;;5496909;25;19993;-68
2024/04/09 12:05:14;;;;;;;6.50;1.25;;;28.00;48.00;;;;;;5496780;25;19986;-68
2024/04/09 12:07:40;;;;;;;5.65;1.92;;;27.90;48.20;;;;;;5505334;25;20197;-68
2024/04/09 12:10:07;;;;;;;6.78;1.67;;;28.20;48.50;;;;;;5496772;25;20196;-68
2024/04/09 12:12:33;;;;;;;4.75;1.17;;;28.40;47.90;;;;;;5496678;25;19986;-67
2024/04/09 12:14:59;;;;;;;3.38;1.20;;;;;;;;;;5497513;25;19986;-68
2024/04/09 12:17:25;;;;;;;7.55;1.77;;;28.50;47.90;;;;;;5497688;25;20106;-68
2024/04/09 12:19:50;;;;;;;3.58;1.35;;;28.60;46.90;;;;;;5498645;25;20001;-68
2024/04/09 12:22:16;;;;;;;5.53;1.20;;;28.50;46.90;;;;;;5496512;25;19990;-67
2024/04/09 12:24:42;;;;;;;3.72;1.17;;;28.30;49.20;;;;;;5496423;25;20046;-69
2024/04/09 12:27:08;;;;;;;3.58;1.30;;;28.40;46.70;;;;;;5495349;25;19986;-69
2024/04/09 12:29:37;;;;;;;1.27;1.02;;;28.40;37.60;;;;;;5496560;25;20042;-69
2024/04/09 12:32:05;;;;;;;6.43;1.27;;;28.70;47.50;;;;;;5499969;25;20002;-70
2024/04/09 12:34:33;;;;;;;3.75;1.38;;;28.40;47.30;;;;;;5504250;25;19994;-67
2024/04/09 12:36:59;;;;;;;3.50;1.48;;;28.60;47.70;;;;;;5496386;25;19993;-69
2024/04/09 12:39:25;;;;;;;3.92;1.23;;;28.60;38.80;;;;;;5496049;25;20006;-69
2024/04/09 12:41:54;;;;;;;3.92;1.60;;;28.60;38.30;;;;;;5495399;25;19990;-68
2024/04/09 12:44:20;;;;;;;5.13;1.95;;;28.40;38.10;;;;;;5496135;25;20481;-69
2024/04/09 12:46:47;;;;;;;4.20;1.50;;;28.20;37.90;;;;;;5499011;25;19998;-69
2024/04/09 12:49:21;;;;;;;1.85;1.15;;;28.10;38.20;;;;;;5496025;25;20075;-69
2024/04/09 12:51:47;;;;;;;2.55;1.20;;;28.10;38.60;;;;;;5500823;25;20199;-68